Time;durP1;ratioP1;P1;durP2;ratioP2;P2;SDS_P1;SDS_P2;PMS_P1;PMS_P2;Temp;Humidity;BMP_temperature;BMP_pressure;BME280_temperature;BME280_humidity;BME280_pressure;Samples;Min_cycle;Max_cycle;Signal;HPM_P1;HPM_P2
2023/12/05 00:00:39;;;;;;;22.35;14.80;;;0.90;94.10;;;;;;5072549;28;20040;-84
2023/12/05 00:03:05;;;;;;;23.40;15.23;;;0.90;94.20;;;;;;5056379;28;20051;-83
2023/12/05 00:05:31;;;;;;;24.20;15.18;;;0.90;94.10;;;;;;5053213;28;20044;-84
2023/12/05 00:07:56;;;;;;;22.08;15.25;;;0.80;94.30;;;;;;5053086;28;20052;-83
2023/12/05 00:10:22;;;;;;;25.13;16.02;;;0.80;94.40;;;;;;5053134;28;20037;-83
2023/12/05 00:12:48;;;;;;;23.92;15.98;;;0.70;94.60;;;;;;5053221;28;20187;-84
2023/12/05 00:15:13;;;;;;;24.25;15.25;;;0.80;94.60;;;;;;5053145;28;20037;-84
2023/12/05 00:17:39;;;;;;;23.70;15.25;;;0.80;94.60;;;;;;5053146;28;20041;-83
2023/12/05 00:20:06;;;;;;;22.67;15.25;;;0.70;94.70;;;;;;5053132;28;20037;-83
2023/12/05 00:22:31;;;;;;;23.48;15.52;;;0.70;94.80;;;;;;5069501;28;20041;-84
2023/12/05 00:24:57;;;;;;;24.70;15.80;;;0.70;94.80;;;;;;5039801;28;20400;-83
2023/12/05 00:27:23;;;;;;;24.42;15.88;;;0.70;94.90;;;;;;5056608;28;20109;-83
2023/12/05 00:29:49;;;;;;;21.92;14.65;;;0.80;95.00;;;;;;5056428;28;20443;-84
2023/12/05 00:32:14;;;;;;;24.67;16.05;;;0.70;95.00;;;;;;5072310;28;20052;-83
2023/12/05 00:34:40;;;;;;;24.08;14.95;;;0.70;95.10;;;;;;5041079;28;20036;-83
2023/12/05 00:37:06;;;;;;;23.00;15.35;;;0.70;95.10;;;;;;5053044;28;20465;-83
2023/12/05 00:39:31;;;;;;;22.15;15.18;;;0.70;95.20;;;;;;5036157;28;20079;-83
2023/12/05 00:41:57;;;;;;;24.85;16.98;;;0.80;95.20;;;;;;5036394;28;20036;-83
2023/12/05 00:44:23;;;;;;;25.00;16.42;;;0.70;95.30;;;;;;5052684;28;20366;-83
2023/12/05 00:46:49;;;;;;;24.50;15.23;;;0.70;95.30;;;;;;5069185;28;20088;-83
2023/12/05 00:49:14;;;;;;;23.10;14.98;;;0.70;95.40;;;;;;5069384;28;20045;-84
2023/12/05 00:51:40;;;;;;;23.88;15.38;;;0.80;95.30;;;;;;5068828;28;20504;-83
2023/12/05 00:54:06;;;;;;;24.88;16.90;;;0.80;95.30;;;;;;5052789;28;20120;-83
2023/12/05 00:56:32;;;;;;;22.48;14.65;;;0.70;95.40;;;;;;5052558;28;20037;-83
2023/12/05 00:58:58;;;;;;;23.95;15.88;;;0.70;95.50;;;;;;5035982;28;20041;-83
2023/12/05 01:01:23;;;;;;;23.45;15.40;;;0.70;95.50;;;;;;5019477;28;20663;-83
2023/12/05 01:03:51;;;;;;;22.23;15.75;;;0.70;95.60;;;;;;5019609;28;20044;-84
2023/12/05 01:06:18;;;;;;;23.88;15.27;;;0.70;95.60;;;;;;5035754;28;20037;-83
2023/12/05 01:08:43;;;;;;;20.30;14.27;;;0.70;95.60;;;;;;5035565;28;20508;-83
2023/12/05 01:11:12;;;;;;;22.63;15.35;;;0.70;95.60;;;;;;5019186;28;20033;-82
2023/12/05 01:13:38;;;;;;;21.20;13.80;;;0.70;95.60;;;;;;5035542;28;20033;-82
2023/12/05 01:16:05;;;;;;;20.75;14.88;;;0.80;95.50;;;;;;5068900;28;20039;-82
2023/12/05 01:18:30;;;;;;;22.23;15.23;;;0.70;95.40;;;;;;5019374;28;20041;-83
2023/12/05 01:20:56;;;;;;;23.33;16.60;;;0.70;95.50;;;;;;5052141;28;20124;-83
2023/12/05 01:23:22;;;;;;;23.65;15.63;;;0.70;95.50;;;;;;5052164;28;20507;-83
2023/12/05 01:25:47;;;;;;;24.77;16.77;;;0.70;95.50;;;;;;5035866;28;20041;-82
2023/12/05 01:28:13;;;;;;;21.70;15.57;;;0.80;95.50;;;;;;5019089;28;20748;-82
2023/12/05 01:30:39;;;;;;;21.90;15.52;;;0.70;95.60;;;;;;5035287;28;20044;-83
2023/12/05 01:33:04;;;;;;;22.08;15.27;;;0.70;95.70;;;;;;5035419;28;20045;-83
2023/12/05 01:35:30;;;;;;;26.13;17.25;;;0.70;95.60;;;;;;5052359;28;20087;-83
2023/12/05 01:37:56;;;;;;;24.30;15.77;;;0.80;95.50;;;;;;5052307;28;20076;-83
2023/12/05 01:40:21;;;;;;;22.67;16.63;;;0.80;95.60;;;;;;5052271;28;20040;-81
2023/12/05 01:42:47;;;;;;;25.73;17.90;;;0.70;95.60;;;;;;5035566;28;20048;-82
2023/12/05 01:45:13;;;;;;;23.77;17.05;;;0.70;95.60;;;;;;5035293;28;20036;-83
2023/12/05 01:47:40;;;;;;;28.42;18.55;;;0.80;95.50;;;;;;5068978;28;20044;-83
2023/12/05 01:50:10;;;;;;;26.50;18.48;;;0.70;95.50;;;;;;5051902;28;20064;-83
2023/12/05 01:52:41;;;;;;;26.75;18.25;;;0.80;95.60;;;;;;5065896;28;20504;-83
2023/12/05 01:55:09;;;;;;;24.83;18.35;;;0.70;95.60;;;;;;5055412;28;20048;-84
2023/12/05 01:57:35;;;;;;;29.45;20.52;;;0.70;95.60;;;;;;5055801;28;20381;-82
2023/12/05 02:00:04;;;;;;;28.17;19.73;;;0.70;95.60;;;;;;5071797;28;20040;-82
2023/12/05 02:02:30;;;;;;;30.55;20.40;;;0.70;95.60;;;;;;5055279;28;20397;-82
2023/12/05 02:04:56;;;;;;;29.08;20.95;;;0.70;95.70;;;;;;5105737;28;20043;-83
2023/12/05 02:07:23;;;;;;;28.05;19.50;;;0.60;95.80;;;;;;5033855;28;20139;-82
2023/12/05 02:09:49;;;;;;;29.48;21.25;;;0.60;95.80;;;;;;5018669;28;20489;-83
2023/12/05 02:12:14;;;;;;;27.83;20.63;;;0.60;95.80;;;;;;5051661;28;20036;-83
2023/12/05 02:14:42;;;;;;;29.17;20.42;;;0.60;95.80;;;;;;5035346;28;20551;-83
2023/12/05 02:17:51;;;;;;;28.17;19.42;;;0.70;95.80;;;;;;5035017;28;20129;-82
2023/12/05 02:20:16;;;;;;;26.10;18.48;;;0.60;95.80;;;;;;5043730;28;20449;-83
2023/12/05 02:23:00;;;;;;;30.75;19.48;;;0.60;95.90;;;;;;5034924;28;20079;-83
2023/12/05 02:25:57;;;;;;;29.95;18.95;;;0.60;95.80;;;;;;5037628;28;20049;-83
2023/12/05 02:28:24;;;;;;;28.25;20.58;;;0.60;95.80;;;;;;5039187;28;20083;-82
2023/12/05 02:30:50;;;;;;;29.60;20.30;;;0.70;95.70;;;;;;5038286;28;20044;-83
2023/12/05 02:33:16;;;;;;;28.15;18.92;;;0.60;95.60;;;;;;5054973;28;20099;-82
2023/12/05 02:35:42;;;;;;;29.63;19.67;;;0.60;95.70;;;;;;5050038;28;20036;-84
2023/12/05 02:38:21;;;;;;;26.40;18.95;;;0.60;95.70;;;;;;5058695;28;20040;-83
2023/12/05 02:40:56;;;;;;;28.25;18.83;;;0.60;95.70;;;;;;5108881;28;20124;-83
2023/12/05 02:43:30;;;;;;;27.33;18.15;;;0.60;95.70;;;;;;5058035;28;20088;-83
2023/12/05 02:45:57;;;;;;;30.63;19.90;;;0.60;95.60;;;;;;5074952;28;20037;-82
2023/12/05 02:48:24;;;;;;;27.70;18.95;;;0.60;95.60;;;;;;5041640;28;20032;-82
2023/12/05 02:50:52;;;;;;;28.15;19.80;;;0.60;95.50;;;;;;5058153;28;20530;-83
2023/12/05 02:53:18;;;;;;;27.83;19.00;;;0.60;95.50;;;;;;5057989;28;20124;-83
2023/12/05 02:55:46;;;;;;;30.77;20.58;;;0.60;95.60;;;;;;5054645;28;20475;-83
2023/12/05 02:58:12;;;;;;;31.88;20.63;;;0.60;95.70;;;;;;5038276;28;20036;-82
2023/12/05 03:00:38;;;;;;;31.40;20.80;;;0.60;95.60;;;;;;5071504;28;20041;-83
2023/12/05 03:03:03;;;;;;;30.45;20.30;;;0.60;95.70;;;;;;5054629;28;20421;-83
2023/12/05 03:05:29;;;;;;;29.75;19.58;;;0.50;95.70;;;;;;5037660;28;20037;-83
2023/12/05 03:07:55;;;;;;;29.02;20.75;;;0.50;95.60;;;;;;5071346;28;20043;-83
2023/12/05 03:10:20;;;;;;;29.60;19.80;;;0.60;95.60;;;;;;5086504;28;20047;-82
2023/12/05 03:12:46;;;;;;;29.40;20.48;;;0.60;95.70;;;;;;5057359;28;20051;-83
2023/12/05 03:15:12;;;;;;;33.08;20.45;;;0.60;95.60;;;;;;5041197;28;20123;-83
2023/12/05 03:17:38;;;;;;;30.83;20.98;;;0.60;95.70;;;;;;5057667;28;20123;-83
2023/12/05 03:20:04;;;;;;;29.42;20.13;;;0.60;95.70;;;;;;5057961;28;20249;-83
2023/12/05 03:22:30;;;;;;;33.15;21.42;;;0.60;95.80;;;;;;5041099;28;20049;-82
2023/12/05 03:24:55;;;;;;;30.27;21.17;;;0.60;95.80;;;;;;5038097;28;20049;-83
2023/12/05 03:27:21;;;;;;;31.45;19.90;;;0.60;95.70;;;;;;5037611;28;20110;-83
2023/12/05 03:29:47;;;;;;;32.35;20.05;;;0.60;95.70;;;;;;5021153;28;20041;-84
2023/12/05 03:32:13;;;;;;;32.58;21.30;;;0.60;95.70;;;;;;5020789;28;20049;-83
2023/12/05 03:34:39;;;;;;;30.83;21.23;;;0.60;95.70;;;;;;5037716;28;20106;-83
2023/12/05 03:37:05;;;;;;;29.48;20.75;;;0.60;95.70;;;;;;5053800;28;20035;-83
2023/12/05 03:39:30;;;;;;;25.67;18.88;;;0.60;95.60;;;;;;5053921;28;20544;-83
2023/12/05 03:41:56;;;;;;;28.35;19.77;;;0.60;95.60;;;;;;5037521;28;20052;-84
2023/12/05 03:44:22;;;;;;;29.33;19.92;;;0.60;95.60;;;;;;5053760;28;20129;-83
2023/12/05 03:46:47;;;;;;;30.77;20.40;;;0.60;95.60;;;;;;5020628;28;20051;-81
2023/12/05 03:49:13;;;;;;;28.73;19.65;;;0.60;95.50;;;;;;5037090;28;20045;-83
2023/12/05 03:51:39;;;;;;;29.92;19.90;;;0.60;95.60;;;;;;5036877;28;20045;-83
2023/12/05 03:54:04;;;;;;;28.58;19.63;;;0.60;95.70;;;;;;5024385;28;20038;-83
2023/12/05 03:56:30;;;;;;;32.65;20.05;;;0.60;95.60;;;;;;5057267;28;20036;-83
2023/12/05 03:58:56;;;;;;;31.35;20.67;;;0.60;95.60;;;;;;5057169;28;20481;-82
2023/12/05 04:01:21;;;;;;;29.05;19.60;;;0.60;95.60;;;;;;5040423;28;20420;-83
2023/12/05 04:03:47;;;;;;;29.50;20.00;;;0.60;95.50;;;;;;5040245;28;20484;-83
2023/12/05 04:06:22;;;;;;;28.95;20.35;;;0.60;95.70;;;;;;5040144;28;20045;-82
2023/12/05 04:08:51;;;;;;;29.35;19.83;;;0.60;95.70;;;;;;5056877;28;20135;-83
2023/12/05 04:11:27;;;;;;;28.95;19.85;;;0.60;95.70;;;;;;5059659;28;20048;-83
2023/12/05 04:13:52;;;;;;;28.85;19.42;;;0.60;95.70;;;;;;5076708;28;20045;-83
2023/12/05 04:16:18;;;;;;;29.77;20.92;;;0.60;95.70;;;;;;5077173;28;20043;-83
2023/12/05 04:18:44;;;;;;;31.38;19.50;;;0.60;95.70;;;;;;5076510;28;20043;-82
2023/12/05 04:21:09;;;;;;;29.08;20.02;;;0.60;95.80;;;;;;5076679;28;20040;-83
2023/12/05 04:23:35;;;;;;;29.77;19.60;;;0.60;95.80;;;;;;5076482;28;20399;-82
2023/12/05 04:26:01;;;;;;;29.55;20.42;;;0.60;95.80;;;;;;5059752;28;20039;-82
2023/12/05 04:28:31;;;;;;;28.67;20.33;;;0.60;95.80;;;;;;5067499;28;20059;-82
2023/12/05 04:30:57;;;;;;;27.58;19.00;;;0.60;95.80;;;;;;5068126;28;20044;-83
2023/12/05 04:33:24;;;;;;;32.10;21.27;;;0.60;95.80;;;;;;5036455;28;20562;-83
2023/12/05 04:35:49;;;;;;;31.58;20.38;;;0.60;95.80;;;;;;5036168;28;20045;-83
2023/12/05 04:38:16;;;;;;;30.23;20.63;;;0.70;95.70;;;;;;5052419;28;20033;-81
2023/12/05 04:40:42;;;;;;;33.30;22.83;;;0.70;95.70;;;;;;5052930;28;20127;-83
2023/12/05 04:43:07;;;;;;;31.10;21.83;;;0.70;95.60;;;;;;5052913;28;20120;-82
2023/12/05 04:45:33;;;;;;;30.38;21.25;;;0.60;95.60;;;;;;5052627;28;20401;-83
2023/12/05 04:47:59;;;;;;;30.35;20.92;;;0.70;95.70;;;;;;5052080;28;20072;-83
2023/12/05 04:50:24;;;;;;;31.20;21.35;;;0.60;95.70;;;;;;5052275;28;20044;-83
2023/12/05 04:52:50;;;;;;;29.88;20.98;;;0.60;95.70;;;;;;5068876;28;20083;-81
2023/12/05 04:55:16;;;;;;;29.25;20.65;;;0.60;95.70;;;;;;5056132;28;20036;-82
2023/12/05 04:57:41;;;;;;;30.38;20.95;;;0.60;95.70;;;;;;5055802;28;20029;-83
2023/12/05 05:00:09;;;;;;;29.58;20.90;;;0.60;95.70;;;;;;5055874;28;20072;-83
2023/12/05 05:02:35;;;;;;;31.38;21.85;;;0.60;95.70;;;;;;5055648;28;20089;-83
2023/12/05 05:05:00;;;;;;;29.98;20.95;;;0.70;95.70;;;;;;5055689;28;20127;-83
2023/12/05 05:07:26;;;;;;;33.25;21.98;;;0.70;95.70;;;;;;5072651;28;20055;-82
2023/12/05 05:09:52;;;;;;;33.13;22.15;;;0.60;95.70;;;;;;5072485;28;20485;-83
2023/12/05 05:12:18;;;;;;;29.92;20.33;;;0.60;95.70;;;;;;5055099;28;20045;-83
2023/12/05 05:14:44;;;;;;;31.52;21.00;;;0.60;95.70;;;;;;5039355;28;20113;-83
2023/12/05 05:17:09;;;;;;;34.97;22.50;;;0.60;95.70;;;;;;5038931;28;20036;-83
2023/12/05 05:19:35;;;;;;;32.67;22.92;;;0.60;95.60;;;;;;5055548;28;20127;-83
2023/12/05 05:22:01;;;;;;;32.60;22.13;;;0.60;95.60;;;;;;5038799;28;20036;-82
2023/12/05 05:24:27;;;;;;;33.50;22.00;;;0.60;95.70;;;;;;5054176;28;20127;-84
2023/12/05 05:26:53;;;;;;;31.60;21.50;;;0.60;95.60;;;;;;5052839;28;20033;-84
2023/12/05 05:29:19;;;;;;;31.75;21.13;;;0.60;95.70;;;;;;5068173;28;20131;-83
2023/12/05 05:31:45;;;;;;;29.55;21.85;;;0.60;95.60;;;;;;5036344;28;20136;-82
2023/12/05 05:34:10;;;;;;;31.73;21.70;;;0.70;95.60;;;;;;5036417;28;20044;-83
2023/12/05 05:36:36;;;;;;;30.55;21.08;;;0.70;95.60;;;;;;5069441;28;20047;-83
2023/12/05 05:39:02;;;;;;;31.77;21.70;;;0.60;95.70;;;;;;5042867;28;20061;-84
2023/12/05 05:41:28;;;;;;;29.10;21.05;;;0.60;95.70;;;;;;5051642;28;20456;-84
2023/12/05 05:43:53;;;;;;;31.63;21.35;;;0.60;95.50;;;;;;5072555;28;20416;-84
2023/12/05 05:46:19;;;;;;;32.60;21.67;;;0.60;95.60;;;;;;5063780;28;20044;-84
2023/12/05 05:48:44;;;;;;;29.85;20.13;;;0.60;95.70;;;;;;5038128;28;20096;-83
2023/12/05 05:51:10;;;;;;;31.73;21.60;;;0.60;95.70;;;;;;5054866;28;20072;-84
2023/12/05 05:53:36;;;;;;;32.97;21.58;;;0.60;95.60;;;;;;5071537;28;20547;-83
2023/12/05 05:56:02;;;;;;;30.08;20.42;;;0.60;95.60;;;;;;5038061;28;20505;-82
2023/12/05 05:58:28;;;;;;;28.92;19.75;;;0.60;95.60;;;;;;5038021;28;20037;-82
2023/12/05 06:00:54;;;;;;;32.53;20.45;;;0.60;95.50;;;;;;5058020;28;20131;-82
2023/12/05 06:03:19;;;;;;;28.17;19.40;;;0.60;95.60;;;;;;5058536;28;20123;-82
2023/12/05 06:05:45;;;;;;;28.65;20.95;;;0.60;95.70;;;;;;5041821;28;20051;-82
2023/12/05 06:08:11;;;;;;;31.20;22.48;;;0.60;95.70;;;;;;5041870;28;20047;-83
2023/12/05 06:10:37;;;;;;;28.98;19.30;;;0.60;95.50;;;;;;5058614;28;20397;-82
2023/12/05 06:13:03;;;;;;;33.33;21.67;;;0.60;95.70;;;;;;5042130;28;20051;-84
2023/12/05 06:15:28;;;;;;;27.48;20.05;;;0.60;95.60;;;;;;5025631;28;20033;-83
2023/12/05 06:17:56;;;;;;;30.17;20.83;;;0.60;95.60;;;;;;5058280;28;20606;-83
2023/12/05 06:20:22;;;;;;;32.10;19.65;;;0.60;95.70;;;;;;5042056;28;20123;-83
2023/12/05 06:22:48;;;;;;;34.25;23.02;;;0.60;95.70;;;;;;5074902;28;20060;-83
2023/12/05 06:25:14;;;;;;;33.47;21.75;;;0.60;95.70;;;;;;5075012;28;20036;-84
2023/12/05 06:27:39;;;;;;;33.05;21.60;;;0.60;95.70;;;;;;5042013;28;20040;-84
2023/12/05 06:30:06;;;;;;;30.38;21.20;;;0.60;95.70;;;;;;5058208;28;20039;-83
2023/12/05 06:32:32;;;;;;;32.08;22.02;;;0.70;95.70;;;;;;5057734;28;20468;-82
2023/12/05 06:34:57;;;;;;;32.63;21.70;;;0.70;95.70;;;;;;5041155;28;20123;-83
2023/12/05 06:37:23;;;;;;;32.03;21.30;;;0.70;95.60;;;;;;5065889;28;20392;-85
2023/12/05 06:39:49;;;;;;;34.65;23.17;;;0.70;95.70;;;;;;5051755;28;20032;-84
2023/12/05 06:42:15;;;;;;;33.72;21.85;;;0.70;95.70;;;;;;5048599;28;20172;-83
2023/12/05 06:44:41;;;;;;;34.83;21.85;;;0.60;95.50;;;;;;5085140;28;20047;-82
2023/12/05 06:47:07;;;;;;;31.60;21.05;;;0.60;95.60;;;;;;5055890;28;20127;-84
2023/12/05 06:49:33;;;;;;;33.38;21.38;;;0.60;95.60;;;;;;5094382;28;20046;-84
2023/12/05 06:52:00;;;;;;;31.92;20.98;;;0.60;95.60;;;;;;5077620;28;20044;-82
2023/12/05 06:54:26;;;;;;;30.75;20.27;;;0.70;95.70;;;;;;5061227;28;20048;-84
2023/12/05 06:56:52;;;;;;;34.67;22.00;;;0.60;95.60;;;;;;5061245;28;20032;-84
2023/12/05 06:59:17;;;;;;;33.20;22.75;;;0.70;95.60;;;;;;5061089;28;20075;-83
2023/12/05 07:01:43;;;;;;;34.50;25.10;;;0.60;95.60;;;;;;5077534;28;20047;-84
2023/12/05 07:04:09;;;;;;;33.15;22.60;;;0.60;95.60;;;;;;5060701;28;20122;-83
2023/12/05 07:06:34;;;;;;;31.35;20.85;;;0.70;95.60;;;;;;5094318;28;20043;-83
2023/12/05 07:09:00;;;;;;;34.22;23.02;;;0.70;95.60;;;;;;5044004;28;20054;-83
2023/12/05 07:11:27;;;;;;;33.85;22.60;;;0.60;95.50;;;;;;5077187;28;20047;-84
2023/12/05 07:13:55;;;;;;;32.83;21.70;;;0.60;95.60;;;;;;5094523;28;20119;-83
2023/12/05 07:16:21;;;;;;;31.77;20.38;;;0.70;95.70;;;;;;5077830;28;20178;-85
2023/12/05 07:18:49;;;;;;;30.83;20.25;;;0.60;95.60;;;;;;5061156;28;20040;-82
2023/12/05 07:21:14;;;;;;;30.83;20.80;;;0.70;95.60;;;;;;5077912;28;20048;-82
2023/12/05 07:23:40;;;;;;;31.13;21.98;;;0.60;95.60;;;;;;5061196;28;20062;-84
2023/12/05 07:26:06;;;;;;;36.15;23.48;;;0.60;95.70;;;;;;5061213;28;20036;-85
2023/12/05 07:28:32;;;;;;;36.85;22.38;;;0.60;95.70;;;;;;5077672;28;20445;-84
2023/12/05 07:30:58;;;;;;;32.63;20.73;;;0.60;95.70;;;;;;5077034;28;20075;-82
2023/12/05 07:33:24;;;;;;;35.70;22.50;;;0.60;95.50;;;;;;5060409;28;20040;-84
2023/12/05 07:35:49;;;;;;;32.90;20.95;;;0.60;95.60;;;;;;5060964;28;20044;-82
2023/12/05 07:38:15;;;;;;;29.58;19.75;;;0.60;95.70;;;;;;5060743;28;20446;-84
2023/12/05 07:40:41;;;;;;;32.03;20.88;;;0.60;95.60;;;;;;5077622;28;20126;-84
2023/12/05 07:43:07;;;;;;;33.38;20.50;;;0.50;95.60;;;;;;5060683;28;20400;-84
2023/12/05 07:45:33;;;;;;;30.52;21.33;;;0.50;95.60;;;;;;5044168;28;20043;-85
2023/12/05 07:47:58;;;;;;;31.88;20.00;;;0.60;95.70;;;;;;5094085;28;20062;-83
2023/12/05 07:50:24;;;;;;;35.30;22.27;;;0.60;95.70;;;;;;5060267;28;20043;-83
2023/12/05 07:52:50;;;;;;;32.22;20.15;;;0.60;95.70;;;;;;5076972;28;20036;-85
2023/12/05 07:55:19;;;;;;;31.38;20.48;;;0.60;95.70;;;;;;5077083;28;20551;-85
2023/12/05 07:57:46;;;;;;;32.15;21.05;;;0.60;95.80;;;;;;5093993;28;20040;-85
2023/12/05 08:00:16;;;;;;;31.25;19.95;;;0.60;95.70;;;;;;5093712;28;20047;-84
2023/12/05 08:02:46;;;;;;;28.05;19.83;;;0.60;95.50;;;;;;5077076;28;20036;-83
2023/12/05 08:05:12;;;;;;;29.80;19.95;;;0.60;95.70;;;;;;5076823;28;20609;-82
2023/12/05 08:07:39;;;;;;;28.65;18.50;;;0.60;95.70;;;;;;5093651;28;20044;-83
2023/12/05 08:10:08;;;;;;;29.58;19.95;;;0.60;95.70;;;;;;5093364;28;20484;-84
2023/12/05 08:12:34;;;;;;;34.42;20.55;;;0.60;95.70;;;;;;5076608;28;20036;-83
2023/12/05 08:15:01;;;;;;;28.70;19.63;;;0.60;95.70;;;;;;5078105;28;20046;-84
2023/12/05 08:17:27;;;;;;;32.58;21.23;;;0.70;95.70;;;;;;5061080;28;20122;-83
2023/12/05 08:19:54;;;;;;;32.85;20.08;;;0.70;95.60;;;;;;5078835;28;20085;-83
2023/12/05 08:22:21;;;;;;;29.08;18.40;;;0.70;95.60;;;;;;5092513;28;20044;-84
2023/12/05 08:24:48;;;;;;;29.75;19.38;;;0.60;95.70;;;;;;5076576;28;20409;-83
2023/12/05 08:27:13;;;;;;;29.92;19.15;;;0.70;95.60;;;;;;5043106;28;20126;-84
2023/12/05 08:29:39;;;;;;;31.05;20.13;;;0.70;95.70;;;;;;5059259;28;20479;-83
2023/12/05 08:32:07;;;;;;;113.30;68.97;;;0.70;95.60;;;;;;5076074;28;20056;-83
2023/12/05 08:34:34;;;;;;;119.90;68.97;;;0.70;95.70;;;;;;5076414;28;20047;-83
2023/12/05 08:37:00;;;;;;;60.80;40.58;;;0.70;95.60;;;;;;5076130;28;20044;-83
2023/12/05 08:39:26;;;;;;;34.67;23.38;;;0.70;95.70;;;;;;5082476;28;20178;-83
2023/12/05 08:41:52;;;;;;;30.05;18.80;;;0.80;95.60;;;;;;5056331;28;20515;-85
2023/12/05 08:44:19;;;;;;;29.27;20.55;;;0.80;95.60;;;;;;5056215;28;20041;-84
2023/12/05 08:46:46;;;;;;;26.00;17.35;;;0.80;95.60;;;;;;5033901;28;20032;-81
2023/12/05 08:49:15;;;;;;;29.95;19.33;;;0.80;95.50;;;;;;5059772;28;20036;-82
2023/12/05 08:51:41;;;;;;;32.05;21.73;;;0.80;95.60;;;;;;5084975;28;20131;-83
2023/12/05 08:54:07;;;;;;;31.52;19.48;;;0.80;95.60;;;;;;5069457;28;20115;-82
2023/12/05 08:56:32;;;;;;;33.45;21.13;;;0.80;95.50;;;;;;5113102;27;20514;-83
2023/12/05 08:58:58;;;;;;;28.02;19.95;;;0.90;95.60;;;;;;5073993;28;20037;-81
2023/12/05 09:01:24;;;;;;;32.15;19.67;;;0.90;95.60;;;;;;5043965;28;20040;-82
2023/12/05 09:03:51;;;;;;;28.20;19.35;;;1.00;95.50;;;;;;5070405;28;20130;-83
2023/12/05 09:06:16;;;;;;;27.65;19.88;;;0.90;95.40;;;;;;5059656;28;20040;-82
2023/12/05 09:08:42;;;;;;;31.10;19.88;;;0.90;95.50;;;;;;5065901;28;20040;-83
2023/12/05 09:11:08;;;;;;;29.98;19.00;;;0.90;95.50;;;;;;5072317;28;20045;-82
2023/12/05 09:13:34;;;;;;;29.02;19.45;;;0.90;95.40;;;;;;5070585;28;20502;-82
2023/12/05 09:16:00;;;;;;;30.50;19.27;;;0.90;95.30;;;;;;5081335;28;20036;-82
2023/12/05 09:18:26;;;;;;;30.23;19.80;;;0.80;95.40;;;;;;5055961;28;20117;-82
2023/12/05 09:20:51;;;;;;;32.88;20.85;;;0.90;95.40;;;;;;5065150;28;20067;-83
2023/12/05 09:23:17;;;;;;;31.05;19.90;;;0.90;95.40;;;;;;5076608;28;20037;-81
2023/12/05 09:25:43;;;;;;;28.92;21.60;;;0.90;95.40;;;;;;5062117;28;20040;-82
2023/12/05 09:28:09;;;;;;;29.40;18.45;;;0.90;95.40;;;;;;5066722;28;20459;-83
2023/12/05 09:30:34;;;;;;;29.73;19.88;;;0.90;95.40;;;;;;5072075;28;20070;-84
2023/12/05 09:33:01;;;;;;;26.38;18.42;;;0.90;95.30;;;;;;5078894;28;20055;-83
2023/12/05 09:35:27;;;;;;;28.38;18.33;;;0.90;95.40;;;;;;5072576;28;20049;-83
2023/12/05 09:37:53;;;;;;;31.30;19.70;;;0.90;95.40;;;;;;5069550;28;20058;-81
2023/12/05 09:40:19;;;;;;;28.35;18.85;;;0.90;95.30;;;;;;5070306;28;20043;-82
2023/12/05 09:42:47;;;;;;;30.42;20.42;;;0.90;95.30;;;;;;5089508;28;20489;-83
2023/12/05 09:45:17;;;;;;;29.75;19.27;;;0.80;95.30;;;;;;5071908;28;20079;-83
2023/12/05 09:47:46;;;;;;;35.88;24.77;;;0.80;95.30;;;;;;5071803;28;21249;-81
2023/12/05 09:50:12;;;;;;;28.02;19.23;;;0.80;95.30;;;;;;5065578;28;20031;-80
2023/12/05 09:52:41;;;;;;;28.13;18.52;;;0.80;95.30;;;;;;5087536;28;20541;-83
2023/12/05 09:55:07;;;;;;;31.10;22.63;;;0.90;95.40;;;;;;5057841;28;20047;-80
2023/12/05 09:57:36;;;;;;;29.70;19.40;;;0.90;95.30;;;;;;5088077;28;20392;-81
2023/12/05 10:00:02;;;;;;;30.13;21.08;;;0.90;95.30;;;;;;5086729;28;20029;-81
2023/12/05 10:02:29;;;;;;;30.05;20.20;;;0.90;95.30;;;;;;5090710;28;20044;-78
2023/12/05 10:05:05;;;;;;;27.90;20.05;;;0.90;95.20;;;;;;5056010;28;20407;-85
2023/12/05 10:07:31;;;;;;;29.63;19.20;;;0.90;95.20;;;;;;5075673;28;20048;-80
2023/12/05 10:09:57;;;;;;;30.20;20.00;;;0.90;95.30;;;;;;5059207;28;21155;-81
2023/12/05 10:12:23;;;;;;;32.95;19.10;;;0.80;95.00;;;;;;5037925;28;20073;-81
2023/12/05 10:14:51;;;;;;;28.73;19.60;;;0.80;95.20;;;;;;5070709;28;20101;-83
2023/12/05 10:17:16;;;;;;;33.15;22.40;;;0.90;95.10;;;;;;5076242;28;20047;-81
2023/12/05 10:19:42;;;;;;;30.58;19.67;;;0.90;95.20;;;;;;5072727;28;20032;-79
2023/12/05 10:22:08;;;;;;;31.92;21.50;;;0.90;95.10;;;;;;5071792;28;20048;-81
2023/12/05 10:24:45;;;;;;;32.20;21.77;;;0.90;95.10;;;;;;5070046;28;20113;-81
2023/12/05 10:27:11;;;;;;;33.30;19.63;;;0.90;95.10;;;;;;5089162;28;20105;-81
2023/12/05 10:29:41;;;;;;;28.02;19.35;;;0.90;95.10;;;;;;5068468;28;20036;-80
2023/12/05 10:32:08;;;;;;;31.50;20.75;;;0.90;95.10;;;;;;5089741;28;20055;-80
2023/12/05 10:34:56;;;;;;;34.35;22.25;;;1.00;95.20;;;;;;5068242;28;20040;-80
2023/12/05 10:37:22;;;;;;;33.88;22.50;;;1.00;95.10;;;;;;5095441;28;20526;-79
2023/12/05 10:39:52;;;;;;;40.92;27.20;;;1.00;95.10;;;;;;5082279;28;20048;-81
2023/12/05 10:42:19;;;;;;;38.70;26.13;;;1.00;95.10;;;;;;5051252;28;20590;-81
2023/12/05 10:44:45;;;;;;;36.97;25.77;;;1.00;95.00;;;;;;5043406;28;20048;-81
2023/12/05 10:47:12;;;;;;;50.20;31.67;;;1.00;95.10;;;;;;5075498;28;20511;-80
2023/12/05 10:49:41;;;;;;;82.25;52.03;;;1.00;94.80;;;;;;5077356;28;20082;-81
2023/12/05 10:52:11;;;;;;;33.17;22.40;;;1.00;94.90;;;;;;5095898;28;21007;-82
2023/12/05 10:54:38;;;;;;;37.25;24.80;;;1.00;95.00;;;;;;5084420;28;20146;-80
2023/12/05 10:57:09;;;;;;;41.80;27.58;;;1.10;95.00;;;;;;5062400;28;20042;-80
2023/12/05 10:59:35;;;;;;;33.85;23.08;;;1.10;95.00;;;;;;5077680;28;20503;-81
2023/12/05 11:02:07;;;;;;;31.05;21.70;;;1.10;94.90;;;;;;5087508;28;20039;-81
2023/12/05 11:04:33;;;;;;;33.00;21.65;;;1.10;94.90;;;;;;5075933;28;20052;-81
2023/12/05 11:06:59;;;;;;;34.45;25.10;;;1.10;94.90;;;;;;5062664;28;20051;-81
2023/12/05 11:09:26;;;;;;;33.45;22.30;;;1.10;94.80;;;;;;5063995;28;20078;-80
2023/12/05 11:11:54;;;;;;;29.90;20.05;;;1.20;94.90;;;;;;5066956;28;20047;-81
2023/12/05 11:14:24;;;;;;;37.78;27.55;;;1.10;94.80;;;;;;5051776;28;20049;-80
2023/12/05 11:16:52;;;;;;;30.77;19.38;;;1.20;94.70;;;;;;5067307;28;20055;-82
2023/12/05 11:19:43;;;;;;;28.92;19.50;;;1.20;94.70;;;;;;5063158;28;20429;-81
2023/12/05 11:22:34;;;;;;;34.55;24.88;;;1.20;94.70;;;;;;5057322;28;20047;-81
2023/12/05 11:25:09;;;;;;;27.17;19.20;;;1.20;94.50;;;;;;5082273;28;20075;-80
2023/12/05 11:27:53;;;;;;;26.92;18.73;;;1.20;94.70;;;;;;5066987;28;20048;-81
2023/12/05 11:30:29;;;;;;;28.20;19.50;;;1.10;94.30;;;;;;5115528;27;20051;-81
2023/12/05 11:33:23;;;;;;;29.30;20.20;;;1.20;94.50;;;;;;5062079;28;20053;-81
2023/12/05 11:35:58;;;;;;;29.43;20.37;;;1.20;94.50;;;;;;5070557;28;20508;-81
2023/12/05 11:38:24;;;;;;;25.95;18.65;;;1.20;94.30;;;;;;5081454;28;20768;-80
2023/12/05 11:41:17;;;;;;;26.52;18.80;;;1.20;94.40;;;;;;5081401;28;20082;-80
2023/12/05 11:44:03;;;;;;;28.17;19.35;;;1.20;94.30;;;;;;5075104;28;20079;-81
2023/12/05 11:46:35;;;;;;;27.33;18.27;;;1.30;94.30;;;;;;5094261;27;20044;-80
2023/12/05 11:49:02;;;;;;;25.33;17.38;;;1.40;94.30;;;;;;5056537;28;20454;-80
2023/12/05 11:51:31;;;;;;;27.77;18.70;;;1.40;94.30;;;;;;5081581;28;20036;-81
2023/12/05 11:54:00;;;;;;;26.60;18.23;;;1.40;94.30;;;;;;5079570;28;20044;-81
2023/12/05 11:56:28;;;;;;;25.00;18.08;;;1.50;94.30;;;;;;5075398;28;20047;-81
2023/12/05 11:59:13;;;;;;;27.73;19.13;;;1.50;94.40;;;;;;5065078;28;20039;-80
2023/12/05 12:01:40;;;;;;;28.98;19.75;;;1.50;94.30;;;;;;5084396;28;20514;-82
2023/12/05 12:04:26;;;;;;;29.08;19.98;;;1.60;94.10;;;;;;5082450;28;20040;-81
2023/12/05 12:06:53;;;;;;;29.10;19.52;;;1.60;94.10;;;;;;5111432;27;20131;-81
2023/12/05 12:09:19;;;;;;;29.48;19.70;;;1.60;94.10;;;;;;5053014;28;20436;-82
2023/12/05 12:11:46;;;;;;;29.98;19.63;;;1.60;94.00;;;;;;5059163;28;20036;-83
2023/12/05 12:14:19;;;;;;;29.48;19.95;;;1.60;93.90;;;;;;5066551;28;20051;-82
2023/12/05 12:16:47;;;;;;;27.30;18.25;;;1.60;93.90;;;;;;5074261;28;20090;-82
2023/12/05 12:19:15;;;;;;;27.73;20.38;;;1.60;94.10;;;;;;5057235;28;20044;-84
2023/12/05 12:21:44;;;;;;;41.15;27.55;;;1.70;93.90;;;;;;5057144;28;20366;-82
2023/12/05 12:24:24;;;;;;;31.45;20.75;;;1.60;93.80;;;;;;5073539;28;20119;-83
2023/12/05 12:26:58;;;;;;;30.33;21.05;;;1.60;93.70;;;;;;5073417;28;20052;-81
2023/12/05 12:29:24;;;;;;;27.83;20.17;;;1.60;93.70;;;;;;5060350;28;20036;-83
2023/12/05 12:31:52;;;;;;;29.52;20.15;;;1.60;93.20;;;;;;5068901;28;20295;-81
2023/12/05 12:34:28;;;;;;;28.42;20.13;;;1.60;93.40;;;;;;5092769;28;20075;-81
2023/12/05 12:36:57;;;;;;;28.52;19.88;;;1.60;93.60;;;;;;5062151;28;20040;-82